createdAt,value
2017-12-14T00:00:00.769Z,965.29
2017-12-14T00:01:08.076Z,965.29
2017-12-14T00:02:14.565Z,965.25
2017-12-14T00:03:21.638Z,965.23
2017-12-14T00:04:28.921Z,965.18
2017-12-14T00:05:36.034Z,965.11
2017-12-14T00:06:43.188Z,965.12
2017-12-14T00:07:50.109Z,965.08
2017-12-14T00:08:57.088Z,965.07
2017-12-14T00:10:04.081Z,965.06
2017-12-14T00:11:11.348Z,965.09
2017-12-14T00:12:18.401Z,965.10
2017-12-14T00:13:25.349Z,965.20
2017-12-14T00:14:32.421Z,965.08
2017-12-14T00:15:39.570Z,965.10
2017-12-14T00:16:46.158Z,965.04
2017-12-14T00:17:53.210Z,965.12
2017-12-14T00:19:00.305Z,965.11
2017-12-14T00:20:07.360Z,965.03
2017-12-14T00:21:14.344Z,965.14
2017-12-14T00:22:21.693Z,965.20
2017-12-14T00:23:28.906Z,965.17
2017-12-14T00:24:35.364Z,965.20
2017-12-14T00:25:42.357Z,965.03
2017-12-14T00:26:49.358Z,965.15
2017-12-14T00:27:56.464Z,965.11
2017-12-14T00:29:08.517Z,965.17
2017-12-14T00:30:10.100Z,965.17
2017-12-14T00:31:17.212Z,965.25
2017-12-14T00:32:23.996Z,965.21
2017-12-14T00:33:31.126Z,965.27
2017-12-14T00:34:37.678Z,965.22
2017-12-14T00:35:44.728Z,965.29
2017-12-14T00:36:51.949Z,965.27
2017-12-14T00:37:59.005Z,965.20
2017-12-14T00:39:06.017Z,965.17
2017-12-14T00:40:13.042Z,965.20
2017-12-14T00:41:20.005Z,965.26
2017-12-14T00:42:26.988Z,965.28
2017-12-14T00:43:34.200Z,965.30
2017-12-14T00:44:41.260Z,965.32
2017-12-14T00:45:48.253Z,965.30
2017-12-14T00:46:55.394Z,965.26
2017-12-14T00:48:02.614Z,965.27
2017-12-14T00:49:09.352Z,965.11
2017-12-14T00:50:16.576Z,965.12
2017-12-14T00:51:23.181Z,965.11
2017-12-14T00:52:30.606Z,965.09
2017-12-14T00:53:37.172Z,964.97
2017-12-14T00:54:44.261Z,965.00
2017-12-14T00:55:50.997Z,964.93
2017-12-14T00:56:58.212Z,964.90
2017-12-14T00:58:04.972Z,964.87
2017-12-14T00:59:11.952Z,964.89
2017-12-14T01:00:19.209Z,964.92
2017-12-14T01:01:26.172Z,964.95
2017-12-14T01:02:33.170Z,964.89
2017-12-14T01:03:40.196Z,964.83
2017-12-14T01:04:47.153Z,964.84
2017-12-14T01:05:54.073Z,964.78
2017-12-14T01:07:01.431Z,964.79
2017-12-14T01:08:08.500Z,964.72
2017-12-14T01:09:15.542Z,964.79
2017-12-14T01:10:22.673Z,964.62
2017-12-14T01:11:29.973Z,964.50
2017-12-14T01:12:37.040Z,964.33
2017-12-14T01:13:44.133Z,964.32
2017-12-14T01:14:50.797Z,964.35
2017-12-14T01:15:57.723Z,964.35
2017-12-14T01:17:04.692Z,964.19
2017-12-14T01:18:11.765Z,964.20
2017-12-14T01:19:18.845Z,964.19
2017-12-14T01:20:26.052Z,964.08
2017-12-14T01:21:33.416Z,964.15
2017-12-14T01:22:39.960Z,964.17
2017-12-14T01:23:47.103Z,963.92
2017-12-14T01:24:54.177Z,964.00
2017-12-14T01:26:01.423Z,963.88
2017-12-14T01:27:08.151Z,963.85
2017-12-14T01:28:15.270Z,963.79
2017-12-14T01:29:22.378Z,963.79
2017-12-14T01:30:29.515Z,963.84
2017-12-14T01:31:36.210Z,963.75
2017-12-14T01:32:43.172Z,963.78
2017-12-14T01:33:50.166Z,963.78
2017-12-14T01:34:57.479Z,963.74
2017-12-14T01:36:04.233Z,963.61
2017-12-14T01:37:11.164Z,963.73
2017-12-14T01:38:18.240Z,963.73
2017-12-14T01:39:25.500Z,963.72
2017-12-14T01:40:32.469Z,963.61
2017-12-14T01:41:39.457Z,963.72
2017-12-14T01:42:46.597Z,963.65
2017-12-14T01:43:53.646Z,963.56
2017-12-14T01:45:00.666Z,963.72
2017-12-14T01:46:07.639Z,963.56
2017-12-14T01:47:14.695Z,963.54
2017-12-14T01:48:22.382Z,963.56
2017-12-14T01:49:29.011Z,963.56
2017-12-14T01:50:36.112Z,963.45
2017-12-14T01:51:43.282Z,963.50
2017-12-14T01:52:50.536Z,963.52
2017-12-14T01:53:57.636Z,963.51
2017-12-14T01:55:04.734Z,963.56
2017-12-14T01:56:11.553Z,963.68
2017-12-14T01:57:18.560Z,963.69
2017-12-14T01:58:25.620Z,963.84
2017-12-14T01:59:32.686Z,963.88
2017-12-14T02:00:39.717Z,964.10
2017-12-14T02:01:46.689Z,964.16
2017-12-14T02:02:53.726Z,964.53
2017-12-14T02:04:00.829Z,964.71
2017-12-14T02:05:07.740Z,964.91
2017-12-14T02:06:14.769Z,965.04
2017-12-14T02:07:21.837Z,965.32
2017-12-14T02:08:28.829Z,965.02
2017-12-14T02:09:35.809Z,965.09
2017-12-14T02:10:42.526Z,965.17
2017-12-14T02:11:49.416Z,965.11
2017-12-14T02:12:56.365Z,965.43
2017-12-14T02:14:03.314Z,965.12
2017-12-14T02:15:10.344Z,965.03
2017-12-14T02:16:17.420Z,965.28
2017-12-14T02:17:24.333Z,965.16
2017-12-14T02:18:31.394Z,964.98
2017-12-14T02:19:38.544Z,965.04
2017-12-14T02:20:45.690Z,965.07
2017-12-14T02:21:52.712Z,965.06
2017-12-14T02:22:59.775Z,965.06
2017-12-14T02:24:06.847Z,965.03
2017-12-14T02:25:13.919Z,964.99
2017-12-14T02:26:20.981Z,965.06
2017-12-14T02:27:28.067Z,965.15
2017-12-14T02:28:34.681Z,965.15
2017-12-14T02:29:41.740Z,965.11
2017-12-14T02:30:48.818Z,965.16
2017-12-14T02:31:55.421Z,965.24
2017-12-14T02:33:02.578Z,965.16
2017-12-14T02:34:09.606Z,965.19
2017-12-14T02:35:16.661Z,965.27
2017-12-14T02:36:23.825Z,965.15
2017-12-14T02:37:30.918Z,965.15
2017-12-14T02:38:37.955Z,965.17
2017-12-14T02:39:45.082Z,965.00
2017-12-14T02:40:51.914Z,964.99
2017-12-14T02:41:58.886Z,964.93
2017-12-14T02:43:06.156Z,965.01
2017-12-14T02:44:13.135Z,965.07
2017-12-14T02:45:20.176Z,965.19
2017-12-14T02:46:26.798Z,965.30
2017-12-14T02:47:34.434Z,965.32
2017-12-14T02:48:40.421Z,965.28
2017-12-14T02:49:47.488Z,965.35
2017-12-14T02:50:54.654Z,965.43
2017-12-14T02:52:01.730Z,965.40
2017-12-14T02:53:08.705Z,965.37
2017-12-14T02:54:15.742Z,965.42
2017-12-14T02:55:22.730Z,965.37
2017-12-14T02:56:29.855Z,965.45
2017-12-14T02:57:36.764Z,965.57
2017-12-14T02:58:43.869Z,965.47
2017-12-14T02:59:50.856Z,965.53
2017-12-14T03:00:57.819Z,965.46
2017-12-14T03:02:04.657Z,965.47
2017-12-14T03:03:11.652Z,965.56
2017-12-14T03:04:18.637Z,965.62
2017-12-14T03:05:25.308Z,965.68
2017-12-14T03:06:32.417Z,965.65
2017-12-14T03:07:39.386Z,965.73
2017-12-14T03:08:46.478Z,965.63
2017-12-14T03:09:53.347Z,965.68
2017-12-14T03:11:00.470Z,965.83
2017-12-14T03:12:07.542Z,965.82
2017-12-14T03:13:14.465Z,965.90
2017-12-14T03:14:21.432Z,966.00
2017-12-14T03:15:28.586Z,966.00
2017-12-14T03:16:35.734Z,966.09
2017-12-14T03:17:41.858Z,966.03
2017-12-14T03:18:48.981Z,966.20
2017-12-14T03:19:55.858Z,966.08
2017-12-14T03:21:04.232Z,966.19
2017-12-14T03:22:09.834Z,966.22
2017-12-14T03:23:17.889Z,966.20
2017-12-14T03:24:26.002Z,966.33
2017-12-14T03:25:31.318Z,966.32
2017-12-14T03:26:37.981Z,966.37
2017-12-14T03:27:45.201Z,966.30
2017-12-14T03:28:52.123Z,966.35
2017-12-14T03:29:59.306Z,966.32
2017-12-14T03:31:06.317Z,966.41
2017-12-14T03:32:13.403Z,966.33
2017-12-14T03:33:20.545Z,966.40
2017-12-14T03:34:27.491Z,966.49
2017-12-14T03:35:34.529Z,966.38
2017-12-14T03:36:41.501Z,966.45
2017-12-14T03:37:48.637Z,966.55
2017-12-14T03:38:55.334Z,966.57
2017-12-14T03:40:02.388Z,966.60
2017-12-14T03:41:09.409Z,966.51
2017-12-14T03:42:16.417Z,966.59
2017-12-14T03:43:23.457Z,966.70
2017-12-14T03:44:30.488Z,966.72
2017-12-14T03:45:37.458Z,966.56
2017-12-14T03:46:44.496Z,966.68
2017-12-14T03:47:51.688Z,966.84
2017-12-14T03:48:58.774Z,966.71
2017-12-14T03:50:05.814Z,966.87
2017-12-14T03:51:12.783Z,966.97
2017-12-14T03:52:19.817Z,966.93
2017-12-14T03:53:26.795Z,967.05
2017-12-14T03:54:33.869Z,967.04
2017-12-14T03:55:40.478Z,967.17
2017-12-14T03:56:47.422Z,967.05
2017-12-14T03:57:54.430Z,967.10
2017-12-14T03:59:01.225Z,967.03
2017-12-14T04:00:08.357Z,967.08
2017-12-14T04:01:15.342Z,967.10
2017-12-14T04:02:22.010Z,967.23
2017-12-14T04:03:29.083Z,967.06
2017-12-14T04:04:36.173Z,967.25
2017-12-14T04:05:43.243Z,967.25
2017-12-14T04:06:50.432Z,967.19
2017-12-14T04:07:57.348Z,967.28
2017-12-14T04:09:04.676Z,967.45
2017-12-14T04:10:11.701Z,967.23
2017-12-14T04:11:18.309Z,967.26
2017-12-14T04:12:25.405Z,967.47
2017-12-14T04:13:32.425Z,967.34
2017-12-14T04:14:39.513Z,967.38
2017-12-14T04:15:46.813Z,967.38
2017-12-14T04:16:53.937Z,967.34
2017-12-14T04:18:00.825Z,967.40
2017-12-14T04:19:07.400Z,967.42
2017-12-14T04:20:14.522Z,967.32
2017-12-14T04:21:21.356Z,967.33
2017-12-14T04:22:28.119Z,967.44
2017-12-14T04:23:35.256Z,967.48
2017-12-14T04:24:42.366Z,967.56
2017-12-14T04:25:49.054Z,967.59
2017-12-14T04:26:56.087Z,967.64
2017-12-14T04:28:03.308Z,967.68
2017-12-14T04:29:10.375Z,967.49
2017-12-14T04:30:17.384Z,967.78
2017-12-14T04:31:24.233Z,967.62
2017-12-14T04:32:31.216Z,967.49
2017-12-14T04:33:38.161Z,967.58
2017-12-14T04:34:45.094Z,967.71
2017-12-14T04:35:52.353Z,967.49
2017-12-14T04:36:59.540Z,967.59
2017-12-14T04:38:06.539Z,967.66
2017-12-14T04:39:13.617Z,967.63
2017-12-14T04:40:20.624Z,967.75
2017-12-14T04:41:27.595Z,967.71
2017-12-14T04:42:34.608Z,967.68
2017-12-14T04:43:41.648Z,967.93
2017-12-14T04:44:48.727Z,967.78
2017-12-14T04:45:55.768Z,967.87
2017-12-14T04:47:02.760Z,967.83
2017-12-14T04:48:10.105Z,967.91
2017-12-14T04:49:16.736Z,967.85
2017-12-14T04:50:23.780Z,967.89
2017-12-14T04:51:30.393Z,968.09
2017-12-14T04:52:37.364Z,967.98
2017-12-14T04:53:44.619Z,968.06
2017-12-14T04:54:51.604Z,968.04
2017-12-14T04:55:58.658Z,967.99
2017-12-14T04:57:05.614Z,968.11
2017-12-14T04:58:12.578Z,968.26
2017-12-14T04:59:20.443Z,968.18
2017-12-14T05:00:26.626Z,968.19
2017-12-14T05:01:33.661Z,968.20
2017-12-14T05:02:40.730Z,968.29
2017-12-14T05:03:47.817Z,968.16
2017-12-14T05:04:54.885Z,968.15
2017-12-14T05:06:01.852Z,968.34
2017-12-14T05:07:08.810Z,968.32
2017-12-14T05:08:15.954Z,968.29
2017-12-14T05:09:23.001Z,968.29
2017-12-14T05:10:29.986Z,968.45
2017-12-14T05:11:37.008Z,968.33
2017-12-14T05:12:43.996Z,968.32
2017-12-14T05:13:50.890Z,968.36
2017-12-14T05:14:57.862Z,968.40
2017-12-14T05:16:04.839Z,968.31
2017-12-14T05:17:11.772Z,968.45
2017-12-14T05:18:18.704Z,968.49
2017-12-14T05:19:25.749Z,968.47
2017-12-14T05:20:32.840Z,968.46
2017-12-14T05:21:39.786Z,968.47
2017-12-14T05:22:46.777Z,968.48
2017-12-14T05:23:53.730Z,968.41
2017-12-14T05:25:00.517Z,968.52
2017-12-14T05:26:07.633Z,968.50
2017-12-14T05:27:14.800Z,968.59
2017-12-14T05:28:22.003Z,968.53
2017-12-14T05:29:29.213Z,968.49
2017-12-14T05:30:36.331Z,968.54
2017-12-14T05:31:43.532Z,968.74
2017-12-14T05:32:50.531Z,968.61
2017-12-14T05:33:57.536Z,968.70
2017-12-14T05:35:04.492Z,968.64
2017-12-14T05:36:11.444Z,968.69
2017-12-14T05:37:18.648Z,968.64
2017-12-14T05:38:25.922Z,968.69
2017-12-14T05:39:32.515Z,968.74
2017-12-14T05:40:39.649Z,968.79
2017-12-14T05:41:46.390Z,968.64
2017-12-14T05:42:52.998Z,968.70
2017-12-14T05:44:00.042Z,968.59
2017-12-14T05:45:07.227Z,968.86
2017-12-14T05:46:14.303Z,968.77
2017-12-14T05:47:21.302Z,968.71
2017-12-14T05:48:28.229Z,968.76
2017-12-14T05:49:35.346Z,968.86
2017-12-14T05:50:42.016Z,968.93
2017-12-14T05:51:49.040Z,969.05
2017-12-14T05:52:56.226Z,969.00
2017-12-14T05:54:03.234Z,969.04
2017-12-14T05:55:10.149Z,969.03
2017-12-14T05:56:17.257Z,968.96
2017-12-14T05:57:24.442Z,968.89
2017-12-14T05:58:31.549Z,968.99
2017-12-14T05:59:38.560Z,969.03
2017-12-14T06:00:45.530Z,969.08
2017-12-14T06:01:52.359Z,969.01
2017-12-14T06:02:59.011Z,969.08
2017-12-14T06:04:06.173Z,969.06
2017-12-14T06:05:12.844Z,969.06
2017-12-14T06:06:19.919Z,969.16
2017-12-14T06:07:26.996Z,969.15
2017-12-14T06:08:34.072Z,969.14
2017-12-14T06:09:40.724Z,969.14
2017-12-14T06:10:47.772Z,969.14
2017-12-14T06:11:54.852Z,969.25
2017-12-14T06:13:01.608Z,969.25
2017-12-14T06:14:08.725Z,969.41
2017-12-14T06:15:16.047Z,969.36
2017-12-14T06:16:22.833Z,969.30
2017-12-14T06:17:30.144Z,969.40
2017-12-14T06:18:36.775Z,969.50
2017-12-14T06:19:43.532Z,969.27
2017-12-14T06:20:50.563Z,969.48
2017-12-14T06:21:57.755Z,969.49
2017-12-14T06:23:04.946Z,969.53
2017-12-14T06:24:11.473Z,969.65
2017-12-14T06:25:18.702Z,969.49
2017-12-14T06:26:25.747Z,969.48
2017-12-14T06:27:32.833Z,969.60
2017-12-14T06:28:39.821Z,969.55
2017-12-14T06:29:46.780Z,969.56
2017-12-14T06:30:53.794Z,969.59
2017-12-14T06:32:00.825Z,969.50
2017-12-14T06:33:07.983Z,969.50
2017-12-14T06:34:14.643Z,969.64
2017-12-14T06:35:21.933Z,969.60
2017-12-14T06:36:28.459Z,969.69
2017-12-14T06:37:35.501Z,969.60
2017-12-14T06:38:42.727Z,969.73
2017-12-14T06:39:49.470Z,969.68
2017-12-14T06:40:56.573Z,969.65
2017-12-14T06:42:03.542Z,969.70
2017-12-14T06:43:10.859Z,969.69
2017-12-14T06:44:17.887Z,969.71
2017-12-14T06:45:24.868Z,969.76
2017-12-14T06:46:31.765Z,969.69
2017-12-14T06:47:38.813Z,969.71
2017-12-14T06:48:45.768Z,969.77
2017-12-14T06:49:52.873Z,969.78
2017-12-14T06:50:59.835Z,969.70
2017-12-14T06:52:06.853Z,969.81
2017-12-14T06:53:14.040Z,969.90
2017-12-14T06:54:21.238Z,969.78
2017-12-14T06:55:28.220Z,969.82
2017-12-14T06:56:35.315Z,969.77
2017-12-14T06:57:42.424Z,969.72
2017-12-14T06:58:49.524Z,969.75
2017-12-14T06:59:56.505Z,969.84
2017-12-14T07:01:03.568Z,969.85
2017-12-14T07:02:10.547Z,969.85
2017-12-14T07:03:17.645Z,969.79
2017-12-14T07:04:24.641Z,969.85
2017-12-14T07:05:31.750Z,969.96
2017-12-14T07:06:38.789Z,969.90
2017-12-14T07:07:45.761Z,969.85
2017-12-14T07:08:52.821Z,969.90
2017-12-14T07:09:59.881Z,970.00
2017-12-14T07:11:06.397Z,969.97
2017-12-14T07:12:13.289Z,969.97
2017-12-14T07:13:20.279Z,969.88
2017-12-14T07:14:27.486Z,970.04
2017-12-14T07:15:34.508Z,970.06
2017-12-14T07:16:41.562Z,970.01
2017-12-14T07:17:48.541Z,970.08
2017-12-14T07:18:55.607Z,969.99
2017-12-14T07:20:02.572Z,970.10
2017-12-14T07:21:09.561Z,970.04
2017-12-14T07:22:16.552Z,970.15
2017-12-14T07:23:23.617Z,970.21
2017-12-14T07:24:30.625Z,970.24
2017-12-14T07:25:37.671Z,970.33
2017-12-14T07:26:44.609Z,970.31
2017-12-14T07:27:51.714Z,970.29
2017-12-14T07:28:58.893Z,970.25
2017-12-14T07:30:05.909Z,970.28
2017-12-14T07:31:12.981Z,970.39
2017-12-14T07:32:20.129Z,970.31
2017-12-14T07:33:27.432Z,970.31
2017-12-14T07:34:34.457Z,970.36
2017-12-14T07:35:41.587Z,970.30
2017-12-14T07:36:48.686Z,970.46
2017-12-14T07:37:55.706Z,970.43
2017-12-14T07:39:02.699Z,970.36
2017-12-14T07:40:09.697Z,970.43
2017-12-14T07:41:16.817Z,970.37
2017-12-14T07:42:23.805Z,970.25
2017-12-14T07:43:30.780Z,970.26
2017-12-14T07:44:37.790Z,970.21
2017-12-14T07:45:44.798Z,970.15
2017-12-14T07:46:51.708Z,970.26
2017-12-14T07:47:58.761Z,970.21
2017-12-14T07:49:05.922Z,970.29
2017-12-14T07:50:12.676Z,970.35
2017-12-14T07:51:19.702Z,970.25
2017-12-14T07:52:26.597Z,970.24
2017-12-14T07:53:33.560Z,970.24
2017-12-14T07:54:40.676Z,970.28
2017-12-14T07:55:47.607Z,970.28
2017-12-14T07:56:54.938Z,970.26
2017-12-14T07:58:02.073Z,970.24
2017-12-14T07:59:09.094Z,970.29
2017-12-14T08:00:16.128Z,970.15
2017-12-14T08:01:23.108Z,970.18
2017-12-14T08:02:29.868Z,970.14
2017-12-14T08:03:36.970Z,970.19
2017-12-14T08:04:44.158Z,970.18
2017-12-14T08:05:50.628Z,970.31
2017-12-14T08:06:57.362Z,970.21
2017-12-14T08:08:04.516Z,970.23
2017-12-14T08:09:11.520Z,970.21
2017-12-14T08:10:18.573Z,970.19
2017-12-14T08:11:25.577Z,970.22
2017-12-14T08:12:32.709Z,970.17
2017-12-14T08:13:39.793Z,970.20
2017-12-14T08:14:47.300Z,970.21
2017-12-14T08:15:54.008Z,970.25
2017-12-14T08:17:01.229Z,970.15
2017-12-14T08:18:08.326Z,970.13
2017-12-14T08:19:15.195Z,970.21
2017-12-14T08:20:22.226Z,970.26
2017-12-14T08:21:29.190Z,970.27
2017-12-14T08:22:36.101Z,970.20
2017-12-14T08:23:43.064Z,970.28
2017-12-14T08:24:50.164Z,970.20
2017-12-14T08:25:57.174Z,970.10
2017-12-14T08:27:04.211Z,970.04
2017-12-14T08:28:11.202Z,970.21
2017-12-14T08:29:18.314Z,970.13
2017-12-14T08:30:25.299Z,970.17
2017-12-14T08:31:32.339Z,970.07
2017-12-14T08:32:39.409Z,970.06
2017-12-14T08:33:46.103Z,970.16
2017-12-14T08:34:53.112Z,970.08
2017-12-14T08:36:00.225Z,970.08
2017-12-14T08:37:07.438Z,970.04
2017-12-14T08:38:13.947Z,970.07
2017-12-14T08:39:21.036Z,970.07
2017-12-14T08:40:28.004Z,970.13
2017-12-14T08:41:34.917Z,970.11
2017-12-14T08:42:41.989Z,970.15
2017-12-14T08:43:49.003Z,970.16
2017-12-14T08:44:56.034Z,970.18
2017-12-14T08:46:02.928Z,970.09
2017-12-14T08:47:09.713Z,970.13
2017-12-14T08:48:16.778Z,970.15
2017-12-14T08:49:23.520Z,970.17
2017-12-14T08:50:32.278Z,970.23
2017-12-14T08:51:37.246Z,970.24
2017-12-14T08:52:44.419Z,970.30
2017-12-14T08:53:51.333Z,970.29
2017-12-14T08:54:58.409Z,970.35
2017-12-14T08:56:05.508Z,970.25
2017-12-14T08:57:12.118Z,970.32
2017-12-14T08:58:18.710Z,970.22
2017-12-14T08:59:26.342Z,970.21
2017-12-14T09:00:32.884Z,970.28
2017-12-14T09:01:39.657Z,970.31
2017-12-14T09:02:46.492Z,970.36
2017-12-14T09:03:53.437Z,970.33
2017-12-14T09:04:59.942Z,970.23
2017-12-14T09:06:06.847Z,970.32
2017-12-14T09:07:13.865Z,970.38
2017-12-14T09:08:20.715Z,970.32
2017-12-14T09:09:27.326Z,970.31
2017-12-14T09:10:34.477Z,970.31
2017-12-14T09:11:41.509Z,970.29
2017-12-14T09:12:48.232Z,970.40
2017-12-14T09:13:55.603Z,970.33
2017-12-14T09:15:01.685Z,970.42
2017-12-14T09:16:08.365Z,970.44
2017-12-14T09:17:15.437Z,970.34
2017-12-14T09:18:22.018Z,970.45
2017-12-14T09:19:29.064Z,970.47
2017-12-14T09:20:36.073Z,970.28
2017-12-14T09:21:43.068Z,970.38
2017-12-14T09:22:50.102Z,970.52
2017-12-14T09:23:56.946Z,970.43
2017-12-14T09:25:03.851Z,970.41
2017-12-14T09:26:10.762Z,970.45
2017-12-14T09:27:17.830Z,970.42
2017-12-14T09:28:25.082Z,970.43
2017-12-14T09:29:32.098Z,970.45
2017-12-14T09:30:39.167Z,970.36
2017-12-14T09:31:46.221Z,970.34
2017-12-14T09:32:53.237Z,970.36
2017-12-14T09:34:00.212Z,970.33
2017-12-14T09:35:07.148Z,970.41
2017-12-14T09:36:14.122Z,970.37
2017-12-14T09:37:21.133Z,970.40
2017-12-14T09:38:28.080Z,970.32
2017-12-14T09:39:35.181Z,970.33
2017-12-14T09:40:42.382Z,970.39
2017-12-14T09:41:49.353Z,970.47
2017-12-14T09:42:56.425Z,970.32
2017-12-14T09:44:03.566Z,970.29
2017-12-14T09:45:10.801Z,970.36
2017-12-14T09:46:17.854Z,970.37
2017-12-14T09:47:24.989Z,970.44
2017-12-14T09:48:31.938Z,970.39
2017-12-14T09:49:38.909Z,970.37
2017-12-14T09:50:45.852Z,970.38
2017-12-14T09:51:53.013Z,970.43
2017-12-14T09:53:00.043Z,970.30
2017-12-14T09:54:07.013Z,970.34
2017-12-14T09:55:14.091Z,970.27
2017-12-14T09:56:21.190Z,970.37
2017-12-14T09:57:28.258Z,970.29
2017-12-14T09:58:35.233Z,970.41
2017-12-14T09:59:42.265Z,970.37
2017-12-14T10:00:49.294Z,970.37
2017-12-14T10:01:56.597Z,970.31
2017-12-14T10:03:03.681Z,970.37
2017-12-14T10:04:10.768Z,970.50
2017-12-14T10:05:17.647Z,970.33
2017-12-14T10:06:24.675Z,970.29
2017-12-14T10:07:31.709Z,970.22
2017-12-14T10:08:39.509Z,970.36
2017-12-14T10:09:45.476Z,970.30
2017-12-14T10:10:52.718Z,970.35
2017-12-14T10:11:59.889Z,970.29
2017-12-14T10:13:06.786Z,970.35
2017-12-14T10:14:13.733Z,970.45
2017-12-14T10:15:20.757Z,970.36
2017-12-14T10:16:27.648Z,970.47
2017-12-14T10:17:34.620Z,970.33
2017-12-14T10:18:41.509Z,970.24
2017-12-14T10:19:48.723Z,970.28
2017-12-14T10:20:55.633Z,970.29
2017-12-14T10:22:02.641Z,970.22
2017-12-14T10:23:09.629Z,970.20
2017-12-14T10:24:16.703Z,970.17
2017-12-14T10:25:23.426Z,970.07
2017-12-14T10:26:30.477Z,969.93
2017-12-14T10:27:37.561Z,969.90
2017-12-14T10:28:44.672Z,969.97
2017-12-14T10:29:51.713Z,969.94
2017-12-14T10:30:58.661Z,969.79
2017-12-14T10:32:05.649Z,969.90
2017-12-14T10:33:12.700Z,969.90
2017-12-14T10:34:19.749Z,969.87
2017-12-14T10:35:26.945Z,969.82
2017-12-14T10:36:33.977Z,969.88
2017-12-14T10:37:41.944Z,969.81
2017-12-14T10:38:48.178Z,969.82
2017-12-14T10:39:54.782Z,969.79
2017-12-14T10:41:02.343Z,969.84
2017-12-14T10:42:09.130Z,969.80
2017-12-14T10:43:16.084Z,969.66
2017-12-14T10:44:22.320Z,969.78
2017-12-14T10:45:30.655Z,969.77
2017-12-14T10:46:36.381Z,969.70
2017-12-14T10:47:43.308Z,969.80
2017-12-14T10:48:54.443Z,969.72
2017-12-14T10:49:57.241Z,969.74
2017-12-14T10:51:04.977Z,969.80
2017-12-14T10:53:22.291Z,969.86
2017-12-14T10:54:25.032Z,969.85
2017-12-14T10:56:45.612Z,969.76
2017-12-14T10:57:45.841Z,969.86
2017-12-14T10:58:53.472Z,969.64
2017-12-14T10:59:59.509Z,969.77
2017-12-14T11:01:06.572Z,969.67
2017-12-14T11:02:13.642Z,969.63
2017-12-14T11:03:20.692Z,969.69
2017-12-14T11:04:27.840Z,969.62
2017-12-14T11:05:34.646Z,969.49
2017-12-14T11:06:42.639Z,969.57
2017-12-14T11:07:48.377Z,969.58
2017-12-14T11:09:04.814Z,969.49
2017-12-14T11:10:02.405Z,969.59
2017-12-14T11:11:09.656Z,969.63
2017-12-14T11:13:23.214Z,969.57
2017-12-14T11:14:31.934Z,969.51
2017-12-14T11:15:36.938Z,969.50
2017-12-14T11:16:44.122Z,969.59
2017-12-14T11:17:51.560Z,969.59
2017-12-14T11:18:58.602Z,969.58
2017-12-14T11:20:05.706Z,969.53
2017-12-14T11:21:14.965Z,969.55
2017-12-14T11:22:24.792Z,969.49
2017-12-14T11:23:26.308Z,969.44
2017-12-14T11:24:33.308Z,969.44
2017-12-14T11:25:41.444Z,969.38
2017-12-14T11:26:47.242Z,969.37
2017-12-14T11:27:54.249Z,969.38
2017-12-14T11:29:01.285Z,969.29
2017-12-14T11:30:08.995Z,969.29
2017-12-14T11:31:15.134Z,969.27
2017-12-14T11:33:29.039Z,969.39
2017-12-14T11:34:38.484Z,969.28
2017-12-14T11:35:44.617Z,969.23
2017-12-14T11:37:56.444Z,969.14
2017-12-14T11:39:04.881Z,969.18
2017-12-14T11:41:02.645Z,969.17
2017-12-14T11:42:02.543Z,969.12
2017-12-14T11:43:07.837Z,969.09
2017-12-14T11:47:03.075Z,969.00
2017-12-14T11:48:10.066Z,968.98
2017-12-14T11:50:24.354Z,968.82
2017-12-14T11:52:37.495Z,968.75
2017-12-14T11:53:51.035Z,968.78
2017-12-14T11:54:51.522Z,968.79
2017-12-14T11:55:58.466Z,968.64
2017-12-14T11:57:05.325Z,968.77
2017-12-14T11:58:12.260Z,968.76
2017-12-14T11:59:18.899Z,968.66
2017-12-14T12:00:25.770Z,968.67
2017-12-14T12:01:32.685Z,968.70
2017-12-14T12:02:39.461Z,968.59
2017-12-14T12:03:46.394Z,968.58
2017-12-14T12:04:53.306Z,968.50
2017-12-14T12:06:00.086Z,968.56
2017-12-14T12:07:06.893Z,968.57
2017-12-14T12:08:14.096Z,968.49
2017-12-14T12:09:21.298Z,968.58
2017-12-14T12:10:27.867Z,968.48
2017-12-14T12:11:34.658Z,968.47
2017-12-14T12:12:41.521Z,968.42
2017-12-14T12:13:48.569Z,968.45
2017-12-14T12:14:55.587Z,968.52
2017-12-14T12:16:02.837Z,968.52
2017-12-14T12:17:09.520Z,968.41
2017-12-14T12:18:16.570Z,968.51
2017-12-14T12:19:23.474Z,968.56
2017-12-14T12:20:30.213Z,968.45
2017-12-14T12:21:37.027Z,968.59
2017-12-14T12:22:43.870Z,968.53
2017-12-14T12:23:50.686Z,968.60
2017-12-14T12:24:57.992Z,968.56
2017-12-14T12:26:04.635Z,968.60
2017-12-14T12:27:11.339Z,968.51
2017-12-14T12:28:18.292Z,968.49
2017-12-14T12:29:25.442Z,968.49
2017-12-14T12:30:32.750Z,968.54
2017-12-14T12:31:39.860Z,968.56
2017-12-14T12:32:46.980Z,968.48
2017-12-14T12:33:54.081Z,968.47
2017-12-14T12:35:01.184Z,968.43
2017-12-14T12:36:09.325Z,968.39
2017-12-14T12:37:15.381Z,968.42
2017-12-14T12:38:22.094Z,968.37
2017-12-14T12:39:29.080Z,968.29
2017-12-14T12:40:36.345Z,968.32
2017-12-14T12:41:42.826Z,968.20
2017-12-14T12:42:49.828Z,968.24
2017-12-14T12:43:57.006Z,968.19
2017-12-14T12:45:03.775Z,968.20
2017-12-14T12:46:10.321Z,968.09
2017-12-14T12:47:17.763Z,968.25
2017-12-14T12:48:24.445Z,968.24
2017-12-14T12:49:31.208Z,968.30
2017-12-14T12:50:37.917Z,968.23
2017-12-14T12:51:44.964Z,968.24
2017-12-14T12:52:51.646Z,968.28
2017-12-14T12:53:58.706Z,968.23
2017-12-14T12:55:05.624Z,968.21
2017-12-14T12:56:12.521Z,968.13
2017-12-14T12:57:19.629Z,968.09
2017-12-14T12:58:26.655Z,968.16
2017-12-14T12:59:33.909Z,968.07
2017-12-14T13:00:42.612Z,968.09
2017-12-14T13:01:48.281Z,968.09
2017-12-14T13:02:54.884Z,968.14
2017-12-14T13:04:01.897Z,968.15
2017-12-14T13:05:09.247Z,968.08
2017-12-14T13:06:15.696Z,968.05
2017-12-14T13:07:23.417Z,968.12
2017-12-14T13:08:29.654Z,968.14
2017-12-14T13:09:38.825Z,968.06
2017-12-14T13:10:43.648Z,968.02
2017-12-14T13:11:50.410Z,968.04
2017-12-14T13:12:57.555Z,968.06
2017-12-14T13:14:04.757Z,968.06
2017-12-14T13:15:11.382Z,968.02
2017-12-14T13:16:18.273Z,968.01
2017-12-14T13:17:25.420Z,968.12
2017-12-14T13:18:32.383Z,968.12
2017-12-14T13:19:39.196Z,968.04
2017-12-14T13:20:46.139Z,968.08
2017-12-14T13:21:53.339Z,968.13
2017-12-14T13:23:00.501Z,968.04
2017-12-14T13:24:07.658Z,968.01
2017-12-14T13:25:14.668Z,968.04
2017-12-14T13:26:21.693Z,967.99
2017-12-14T13:27:28.729Z,968.03
2017-12-14T13:28:35.697Z,968.00
2017-12-14T13:29:42.762Z,967.93
2017-12-14T13:30:49.742Z,967.95
2017-12-14T13:31:56.529Z,967.99
2017-12-14T13:33:03.646Z,968.01
2017-12-14T13:34:10.861Z,967.95
2017-12-14T13:35:18.038Z,968.00
2017-12-14T13:36:30.308Z,967.89
2017-12-14T13:37:31.418Z,967.92
2017-12-14T13:38:38.053Z,967.97
2017-12-14T13:39:45.060Z,967.88
2017-12-14T13:40:52.180Z,967.90
2017-12-14T13:42:00.112Z,967.82
2017-12-14T13:43:06.082Z,967.79
2017-12-14T13:44:12.746Z,967.80
2017-12-14T13:45:19.805Z,967.85
2017-12-14T13:46:27.049Z,967.86
2017-12-14T13:47:34.048Z,967.80
2017-12-14T13:48:41.166Z,967.74
2017-12-14T13:49:47.995Z,967.77
2017-12-14T13:50:55.040Z,967.74
2017-12-14T13:52:02.364Z,967.72
2017-12-14T13:53:08.771Z,967.70
2017-12-14T13:54:15.954Z,967.80
2017-12-14T13:55:22.625Z,967.65
2017-12-14T13:56:29.801Z,967.69
2017-12-14T13:57:44.345Z,967.74
2017-12-14T13:58:44.046Z,967.69
2017-12-14T13:59:51.142Z,967.68
2017-12-14T14:00:57.947Z,967.70
2017-12-14T14:02:04.640Z,967.74
2017-12-14T14:03:11.804Z,967.76
2017-12-14T14:04:18.366Z,967.69
2017-12-14T14:05:25.451Z,967.62
2017-12-14T14:06:32.530Z,967.61